Time;durP1;ratioP1;P1;durP2;ratioP2;P2;SDS_P1;SDS_P2;PMS_P1;PMS_P2;Temp;Humidity;BMP_temperature;BMP_pressure;BME280_temperature;BME280_humidity;BME280_pressure;Samples;Min_cycle;Max_cycle;Signal;HPM_P1;HPM_P2
2023/06/28 00:00:19;;;;;;;12.00;4.55;;;19.70;99.90;;;;;;5050734;28;20770;-59
2023/06/28 00:02:45;;;;;;;11.15;4.78;;;19.80;99.90;;;;;;5068057;28;20067;-59
2023/06/28 00:05:12;;;;;;;14.25;5.00;;;19.70;99.90;;;;;;5068405;28;20048;-58
2023/06/28 00:07:39;;;;;;;12.07;5.00;;;19.70;99.90;;;;;;5068302;28;20047;-59
2023/06/28 00:10:06;;;;;;;11.45;5.43;;;19.60;99.90;;;;;;5068269;28;20044;-59
2023/06/28 00:12:33;;;;;;;16.77;6.60;;;19.70;99.90;;;;;;5067949;28;20521;-58
2023/06/28 00:15:00;;;;;;;12.95;4.53;;;19.70;99.90;;;;;;5067757;28;20056;-58
2023/06/28 00:17:30;;;;;;;17.10;6.25;;;19.70;99.90;;;;;;5068350;28;20475;-58
2023/06/28 00:19:58;;;;;;;14.68;5.38;;;19.70;99.90;;;;;;5067065;28;20153;-59
2023/06/28 00:22:29;;;;;;;11.73;4.55;;;19.70;99.90;;;;;;5068310;28;20419;-59
2023/06/28 00:24:57;;;;;;;10.38;4.85;;;19.70;99.90;;;;;;5067437;28;20067;-59
2023/06/28 00:27:24;;;;;;;21.02;7.25;;;19.70;99.90;;;;;;5068161;28;20491;-59
2023/06/28 00:29:51;;;;;;;17.88;5.40;;;19.70;99.90;;;;;;5067625;28;20495;-59
2023/06/28 00:32:18;;;;;;;16.08;5.00;;;19.70;99.90;;;;;;5068346;28;20055;-59
2023/06/28 00:34:44;;;;;;;14.80;4.80;;;19.70;99.90;;;;;;5067757;28;20518;-59
2023/06/28 00:37:11;;;;;;;16.17;5.97;;;19.70;99.90;;;;;;5067981;28;20055;-59
2023/06/28 00:39:38;;;;;;;17.63;5.35;;;19.70;99.90;;;;;;5067846;28;20553;-59
2023/06/28 00:42:05;;;;;;;12.00;5.15;;;19.70;99.90;;;;;;5067964;28;20076;-59
2023/06/28 00:44:32;;;;;;;15.82;5.47;;;19.70;99.90;;;;;;5049632;28;20063;-59
2023/06/28 00:46:59;;;;;;;17.42;6.10;;;19.70;99.90;;;;;;5067990;28;20484;-59
2023/06/28 00:49:28;;;;;;;11.32;4.70;;;19.70;99.90;;;;;;4700497;28;10000579;-60
2023/06/28 00:51:55;;;;;;;11.82;4.60;;;19.80;99.90;;;;;;5049449;28;20045;-59
2023/06/28 00:54:22;;;;;;;13.00;5.32;;;19.80;99.90;;;;;;5067571;28;20045;-58
2023/06/28 00:56:49;;;;;;;7.50;4.38;;;19.80;99.90;;;;;;5067525;28;20068;-59
2023/06/28 00:59:16;;;;;;;12.82;6.25;;;19.80;99.90;;;;;;5049711;28;20056;-59
2023/06/28 01:01:43;;;;;;;13.23;5.28;;;19.80;99.90;;;;;;5067847;28;20040;-60
2023/06/28 01:04:13;;;;;;;10.48;5.35;;;19.80;99.90;;;;;;5067582;28;20056;-59
2023/06/28 01:06:41;;;;;;;19.10;7.60;;;19.80;99.90;;;;;;5064145;28;20053;-60
2023/06/28 01:09:10;;;;;;;11.80;5.90;;;19.70;99.90;;;;;;5053609;28;20078;-59
2023/06/28 01:11:36;;;;;;;16.20;5.53;;;19.70;99.90;;;;;;5037401;28;20052;-59
2023/06/28 01:14:04;;;;;;;14.77;6.15;;;19.60;99.90;;;;;;5053540;28;20660;-59
2023/06/28 01:16:33;;;;;;;17.80;5.88;;;19.60;99.90;;;;;;5053013;28;20045;-57
2023/06/28 01:19:00;;;;;;;18.48;5.82;;;19.60;99.90;;;;;;5054284;28;20048;-58
2023/06/28 01:21:28;;;;;;;14.70;6.10;;;19.60;99.90;;;;;;5071529;28;20053;-59
2023/06/28 01:23:55;;;;;;;10.73;5.43;;;19.60;99.90;;;;;;5053747;28;20052;-59
2023/06/28 01:26:22;;;;;;;16.98;6.32;;;19.60;99.90;;;;;;5033322;28;20423;-59
2023/06/28 01:28:49;;;;;;;15.73;6.65;;;19.60;99.90;;;;;;5068869;28;20056;-59
2023/06/28 01:31:16;;;;;;;15.60;6.60;;;19.60;99.90;;;;;;5071171;28;20048;-59
2023/06/28 01:33:45;;;;;;;18.58;6.60;;;19.60;99.90;;;;;;5071280;28;20090;-59
2023/06/28 01:36:11;;;;;;;13.30;5.53;;;19.60;99.90;;;;;;5070755;28;20139;-59
2023/06/28 01:38:38;;;;;;;19.42;6.40;;;19.60;99.90;;;;;;5071341;28;20449;-59
2023/06/28 01:41:06;;;;;;;17.48;6.22;;;19.60;99.90;;;;;;5071117;28;20059;-59
2023/06/28 01:43:33;;;;;;;14.73;5.97;;;19.60;99.90;;;;;;5053229;28;20659;-59
2023/06/28 01:45:59;;;;;;;16.58;6.30;;;19.60;99.90;;;;;;5070703;28;20040;-59
2023/06/28 01:48:26;;;;;;;13.30;6.05;;;19.60;99.90;;;;;;5053304;28;20619;-60
2023/06/28 01:50:53;;;;;;;17.65;6.47;;;19.60;99.90;;;;;;5071271;28;20057;-60
2023/06/28 01:53:20;;;;;;;11.77;6.13;;;19.60;99.90;;;;;;5071024;28;20045;-59
2023/06/28 01:55:47;;;;;;;21.42;6.80;;;19.50;99.90;;;;;;5070842;28;20097;-60
2023/06/28 01:58:13;;;;;;;14.18;6.25;;;19.60;99.90;;;;;;5069471;28;20549;-59
2023/06/28 02:00:40;;;;;;;19.42;6.35;;;19.60;99.90;;;;;;5071127;28;20125;-59
2023/06/28 02:03:07;;;;;;;18.02;6.75;;;19.60;99.90;;;;;;5070669;28;20041;-59
2023/06/28 02:05:34;;;;;;;19.30;6.50;;;19.60;99.90;;;;;;5070730;28;20102;-59
2023/06/28 02:08:02;;;;;;;16.58;5.82;;;19.60;99.90;;;;;;5052745;28;20044;-60
2023/06/28 02:10:30;;;;;;;22.50;7.22;;;19.60;99.90;;;;;;5070235;28;20480;-59
2023/06/28 02:12:56;;;;;;;17.23;6.38;;;19.60;99.90;;;;;;5070524;28;20057;-60
2023/06/28 02:15:24;;;;;;;18.52;7.93;;;19.60;99.90;;;;;;5070560;28;20088;-60
2023/06/28 02:17:55;;;;;;;15.93;6.65;;;19.60;99.90;;;;;;5070010;28;20127;-58
2023/06/28 02:20:22;;;;;;;16.50;6.57;;;19.70;99.90;;;;;;5069636;28;20049;-60
2023/06/28 02:22:49;;;;;;;20.48;8.55;;;19.60;99.90;;;;;;5070279;28;20441;-60
2023/06/28 02:25:16;;;;;;;17.85;7.15;;;19.60;99.90;;;;;;5052387;28;20071;-60
2023/06/28 02:27:42;;;;;;;17.90;6.60;;;19.60;99.90;;;;;;5070090;28;20048;-60
2023/06/28 02:30:09;;;;;;;19.95;6.43;;;19.60;99.90;;;;;;5070112;28;20056;-60
2023/06/28 02:32:36;;;;;;;17.90;7.18;;;19.60;99.90;;;;;;5069770;28;20055;-60
2023/06/28 02:35:03;;;;;;;12.82;6.70;;;19.60;99.90;;;;;;5070365;28;20491;-60
2023/06/28 02:37:30;;;;;;;18.33;7.18;;;19.60;99.90;;;;;;5069725;28;20503;-60
2023/06/28 02:39:57;;;;;;;15.40;6.05;;;19.60;99.90;;;;;;5070195;28;20067;-59
2023/06/28 02:42:24;;;;;;;20.25;7.28;;;19.50;99.90;;;;;;5070058;28;20491;-59
2023/06/28 02:44:50;;;;;;;16.92;7.30;;;19.60;99.90;;;;;;5069790;28;20044;-60
2023/06/28 02:47:17;;;;;;;14.70;8.15;;;19.60;99.90;;;;;;5069667;28;20487;-59
2023/06/28 02:49:44;;;;;;;18.33;7.53;;;19.60;99.90;;;;;;5069026;28;20066;-58
2023/06/28 02:52:11;;;;;;;14.27;6.50;;;19.70;99.90;;;;;;5069987;28;20048;-58
2023/06/28 02:54:38;;;;;;;22.17;7.97;;;19.70;99.90;;;;;;5069568;28;20384;-59
2023/06/28 02:57:08;;;;;;;16.70;6.90;;;19.70;99.90;;;;;;5070103;28;20411;-58
2023/06/28 02:59:35;;;;;;;20.20;7.00;;;19.70;99.90;;;;;;5069530;28;20045;-57
2023/06/28 03:02:05;;;;;;;19.38;7.05;;;19.60;99.90;;;;;;5069586;28;20154;-59
2023/06/28 03:04:32;;;;;;;13.13;6.03;;;19.60;99.90;;;;;;5069469;28;20044;-58
2023/06/28 03:06:59;;;;;;;15.10;7.03;;;19.60;99.90;;;;;;5069617;28;20094;-59
2023/06/28 03:09:26;;;;;;;14.25;6.35;;;19.60;99.90;;;;;;5069318;28;20569;-58
2023/06/28 03:11:53;;;;;;;13.15;6.93;;;19.60;99.90;;;;;;5069603;28;20051;-59
2023/06/28 03:14:43;;;;;;;16.25;7.18;;;19.60;99.90;;;;;;5057597;28;20044;-59
2023/06/28 03:17:11;;;;;;;13.00;7.15;;;19.60;99.90;;;;;;5050963;28;20075;-59
2023/06/28 03:19:37;;;;;;;15.98;7.07;;;19.60;99.90;;;;;;5069022;28;20106;-59
2023/06/28 03:22:04;;;;;;;16.45;7.68;;;19.50;99.90;;;;;;5069445;28;20127;-59
2023/06/28 03:24:31;;;;;;;13.52;6.75;;;19.60;99.90;;;;;;5068699;28;20526;-59
2023/06/28 03:26:58;;;;;;;19.00;8.30;;;19.60;99.90;;;;;;5069094;28;20128;-59
2023/06/28 03:29:25;;;;;;;15.48;8.68;;;19.60;99.90;;;;;;5069074;28;20068;-59
2023/06/28 03:31:51;;;;;;;19.23;8.93;;;19.60;99.90;;;;;;5050669;28;20094;-58
2023/06/28 03:34:18;;;;;;;17.25;8.77;;;19.50;99.90;;;;;;5068867;28;20056;-58
2023/06/28 03:36:47;;;;;;;17.55;8.80;;;19.50;99.90;;;;;;5069147;28;20052;-59
2023/06/28 03:39:19;;;;;;;16.17;9.05;;;19.50;99.90;;;;;;5068880;28;20446;-58
2023/06/28 03:41:46;;;;;;;22.58;9.23;;;19.40;99.90;;;;;;5069259;28;20396;-59
2023/06/28 03:44:14;;;;;;;22.33;9.63;;;19.40;99.90;;;;;;5069132;28;20048;-59
2023/06/28 03:46:41;;;;;;;20.67;9.40;;;19.40;99.90;;;;;;5068508;28;20070;-59
2023/06/28 03:49:07;;;;;;;27.38;11.52;;;19.40;99.90;;;;;;5068560;28;20048;-58
2023/06/28 03:51:34;;;;;;;23.00;10.77;;;19.40;99.90;;;;;;5067538;28;20059;-60
2023/06/28 03:54:01;;;;;;;19.88;10.60;;;19.40;99.90;;;;;;5069163;28;20044;-59
2023/06/28 03:56:28;;;;;;;18.38;10.30;;;19.40;99.90;;;;;;5068253;28;20457;-59
2023/06/28 03:58:55;;;;;;;22.52;10.43;;;19.40;99.90;;;;;;5050900;28;20446;-59
2023/06/28 04:01:22;;;;;;;16.83;10.05;;;19.40;99.90;;;;;;5068474;28;20052;-59
2023/06/28 04:03:49;;;;;;;21.08;10.90;;;19.40;99.90;;;;;;5068646;28;20511;-59
2023/06/28 04:06:15;;;;;;;19.95;10.35;;;19.40;99.90;;;;;;5048152;28;20138;-59
2023/06/28 04:08:45;;;;;;;31.67;10.98;;;19.40;99.90;;;;;;5068857;28;20037;-59
2023/06/28 04:11:12;;;;;;;25.77;9.18;;;19.40;99.90;;;;;;5068176;28;20048;-60
2023/06/28 04:13:39;;;;;;;19.00;10.20;;;19.50;99.90;;;;;;5068603;28;20045;-59
2023/06/28 04:16:06;;;;;;;21.17;9.85;;;19.40;99.90;;;;;;5066014;28;20426;-59
2023/06/28 04:18:33;;;;;;;19.05;9.30;;;19.40;99.90;;;;;;5067932;28;20051;-59
2023/06/28 04:20:59;;;;;;;22.42;10.15;;;19.40;99.90;;;;;;5066640;28;20144;-59
2023/06/28 04:23:26;;;;;;;26.33;10.60;;;19.40;99.90;;;;;;5068059;28;20040;-59
2023/06/28 04:25:53;;;;;;;24.08;10.85;;;19.40;99.90;;;;;;5067986;28;20105;-59
2023/06/28 04:28:20;;;;;;;22.15;10.30;;;19.40;99.90;;;;;;5067890;28;20040;-58
2023/06/28 04:30:47;;;;;;;20.60;10.23;;;19.40;99.90;;;;;;5068064;28;20056;-59
2023/06/28 04:33:14;;;;;;;20.88;10.25;;;19.40;99.90;;;;;;5067641;28;20086;-57
2023/06/28 04:35:46;;;;;;;20.05;9.50;;;19.40;99.90;;;;;;5068101;28;20522;-58
2023/06/28 04:38:13;;;;;;;18.42;9.77;;;19.50;99.90;;;;;;5067917;28;20105;-59
2023/06/28 04:40:40;;;;;;;13.98;9.23;;;19.50;99.90;;;;;;5067997;28;20052;-59
2023/06/28 04:43:10;;;;;;;14.15;9.70;;;19.50;99.90;;;;;;5049580;28;20468;-58
2023/06/28 04:45:37;;;;;;;20.65;9.45;;;19.50;99.90;;;;;;5050590;28;20365;-59
2023/06/28 04:48:08;;;;;;;15.98;8.15;;;19.40;99.90;;;;;;5067328;28;20040;-59
2023/06/28 04:50:39;;;;;;;18.40;9.05;;;19.40;99.90;;;;;;5068067;28;20051;-59
2023/06/28 04:53:06;;;;;;;23.55;9.82;;;19.40;99.90;;;;;;5067854;28;20125;-59
2023/06/28 04:55:34;;;;;;;26.63;10.27;;;19.40;99.90;;;;;;5050217;28;20098;-59
2023/06/28 04:58:02;;;;;;;14.88;9.27;;;19.40;99.90;;;;;;5067823;28;20082;-59
2023/06/28 05:00:30;;;;;;;21.05;9.13;;;19.40;99.90;;;;;;5067813;28;20491;-59
2023/06/28 05:02:57;;;;;;;20.73;9.93;;;19.40;99.90;;;;;;5066833;28;20080;-59
2023/06/28 05:05:24;;;;;;;17.80;8.82;;;19.50;99.90;;;;;;5065860;28;20083;-59
2023/06/28 05:07:55;;;;;;;17.10;8.70;;;19.50;99.90;;;;;;5058961;28;20044;-58
2023/06/28 05:10:23;;;;;;;17.45;10.02;;;19.60;99.90;;;;;;5059772;28;20051;-58
2023/06/28 05:12:51;;;;;;;16.27;8.93;;;19.60;99.90;;;;;;5056166;28;20447;-60
2023/06/28 05:15:18;;;;;;;19.23;9.35;;;19.50;99.90;;;;;;5058887;28;20048;-60
2023/06/28 05:17:45;;;;;;;17.50;8.68;;;19.50;99.90;;;;;;5044207;28;20059;-59
2023/06/28 05:20:12;;;;;;;17.27;9.00;;;19.60;99.90;;;;;;5061262;28;20049;-60
2023/06/28 05:22:46;;;;;;;20.88;9.85;;;19.60;99.90;;;;;;5058741;28;20128;-58
2023/06/28 05:25:13;;;;;;;18.65;10.48;;;19.60;99.90;;;;;;5060607;28;20060;-59
2023/06/28 05:27:39;;;;;;;20.50;8.30;;;19.60;99.90;;;;;;5064591;28;20082;-59
2023/06/28 05:30:07;;;;;;;16.70;8.70;;;19.60;99.90;;;;;;5062022;28;20045;-60
2023/06/28 05:32:34;;;;;;;14.90;8.63;;;19.60;99.90;;;;;;5061081;28;20071;-59
2023/06/28 05:35:02;;;;;;;15.35;9.43;;;19.60;99.90;;;;;;5061100;28;20040;-59
2023/06/28 05:37:29;;;;;;;13.50;9.05;;;19.70;99.90;;;;;;5058519;28;20508;-59
2023/06/28 05:39:56;;;;;;;19.63;9.63;;;19.70;99.90;;;;;;5058893;28;20056;-60
2023/06/28 05:42:23;;;;;;;17.50;10.25;;;19.70;99.90;;;;;;5058480;28;20157;-60
2023/06/28 05:44:50;;;;;;;18.77;10.45;;;19.70;99.90;;;;;;5062831;28;20101;-59
2023/06/28 05:47:17;;;;;;;22.90;10.63;;;19.70;99.90;;;;;;5051056;28;20439;-63
2023/06/28 05:49:44;;;;;;;17.90;9.93;;;19.70;99.90;;;;;;5066793;28;20388;-56
2023/06/28 05:52:12;;;;;;;18.15;9.77;;;19.70;99.90;;;;;;5066942;28;20056;-58
2023/06/28 05:54:39;;;;;;;20.63;9.63;;;19.70;99.90;;;;;;5067459;28;20068;-59
2023/06/28 05:57:05;;;;;;;20.35;9.52;;;19.70;99.90;;;;;;5049832;28;20044;-58
2023/06/28 05:59:32;;;;;;;15.68;10.27;;;19.70;99.90;;;;;;5066477;28;20044;-59
2023/06/28 06:01:59;;;;;;;19.15;8.73;;;19.80;99.90;;;;;;5066192;28;20731;-60
2023/06/28 06:04:26;;;;;;;30.55;9.60;;;19.80;99.90;;;;;;5065730;28;20045;-60
2023/06/28 06:06:53;;;;;;;17.25;10.02;;;19.70;99.90;;;;;;5062778;28;20040;-59
2023/06/28 06:09:20;;;;;;;18.88;9.85;;;19.70;99.90;;;;;;5064224;28;20414;-58
2023/06/28 06:11:47;;;;;;;18.52;9.85;;;19.80;99.90;;;;;;5045058;28;20044;-58
2023/06/28 06:14:15;;;;;;;24.13;10.32;;;19.80;99.90;;;;;;5068482;28;20053;-59
2023/06/28 06:16:42;;;;;;;17.45;9.95;;;19.80;99.90;;;;;;5069275;28;20036;-58
2023/06/28 06:19:09;;;;;;;27.70;9.35;;;19.90;99.90;;;;;;5069377;28;20049;-58
2023/06/28 06:21:38;;;;;;;22.35;10.48;;;19.90;99.90;;;;;;5069304;28;20566;-59
2023/06/28 06:24:07;;;;;;;25.20;9.80;;;19.90;99.90;;;;;;5068737;28;20251;-60
2023/06/28 06:26:40;;;;;;;18.00;9.98;;;19.90;99.90;;;;;;5065510;28;20041;-55
2023/06/28 06:29:10;;;;;;;17.92;9.50;;;20.00;99.90;;;;;;5055498;28;20094;-58
2023/06/28 06:31:37;;;;;;;18.10;9.60;;;20.00;99.90;;;;;;5064540;28;20491;-55
2023/06/28 06:34:04;;;;;;;17.95;9.02;;;20.00;99.90;;;;;;5065961;28;20392;-58
2023/06/28 06:36:31;;;;;;;26.33;10.32;;;19.90;99.90;;;;;;5067873;28;20052;-56
2023/06/28 06:38:58;;;;;;;18.17;10.07;;;19.90;99.90;;;;;;5069768;28;20052;-59
2023/06/28 06:41:24;;;;;;;17.98;10.45;;;19.90;99.90;;;;;;5068761;28;20056;-57
2023/06/28 06:43:51;;;;;;;17.92;10.50;;;20.00;99.90;;;;;;5069894;28;20044;-59
2023/06/28 06:46:21;;;;;;;20.73;9.57;;;20.00;99.90;;;;;;5068471;28;20040;-58
2023/06/28 06:48:48;;;;;;;18.33;10.23;;;20.00;99.90;;;;;;5069259;28;20384;-58
2023/06/28 06:51:15;;;;;;;18.15;10.00;;;20.00;99.90;;;;;;5068829;28;20048;-57
2023/06/28 06:53:42;;;;;;;16.25;10.05;;;20.10;99.90;;;;;;5069560;28;20475;-58
2023/06/28 06:56:08;;;;;;;14.40;9.85;;;20.10;99.90;;;;;;5068792;28;20147;-55
2023/06/28 06:58:36;;;;;;;16.88;9.77;;;20.20;99.90;;;;;;5069080;28;20072;-59
2023/06/28 07:01:03;;;;;;;18.23;10.10;;;20.20;99.90;;;;;;5066686;28;20136;-57
2023/06/28 07:03:30;;;;;;;16.13;9.65;;;20.20;99.90;;;;;;5067021;28;20048;-57
2023/06/28 07:05:57;;;;;;;17.27;9.50;;;20.10;99.90;;;;;;5068643;28;20049;-58
2023/06/28 07:08:24;;;;;;;22.25;11.18;;;20.20;99.90;;;;;;5050994;28;20118;-58
2023/06/28 07:10:50;;;;;;;19.80;10.77;;;20.30;99.90;;;;;;5068884;28;20048;-58
2023/06/28 07:13:17;;;;;;;16.30;10.57;;;20.40;99.90;;;;;;5066068;28;20064;-58
2023/06/28 07:15:44;;;;;;;22.58;10.60;;;20.60;99.90;;;;;;5068522;28;20048;-58
2023/06/28 07:18:11;;;;;;;18.30;10.10;;;20.60;99.90;;;;;;5063649;28;20049;-59
2023/06/28 07:20:38;;;;;;;17.48;9.38;;;20.70;99.90;;;;;;5063726;28;20044;-57
2023/06/28 07:23:05;;;;;;;20.23;9.50;;;20.70;99.90;;;;;;5068435;28;20055;-59
2023/06/28 07:25:32;;;;;;;19.67;10.20;;;20.80;99.90;;;;;;5068117;28;20492;-59
2023/06/28 07:27:59;;;;;;;20.92;9.15;;;20.80;99.90;;;;;;5066753;28;20175;-58
2023/06/28 07:30:29;;;;;;;16.52;9.43;;;20.80;99.90;;;;;;5068153;28;20052;-58
2023/06/28 07:32:57;;;;;;;18.20;9.35;;;20.70;99.90;;;;;;5067113;28;20045;-58
2023/06/28 07:35:24;;;;;;;17.63;9.25;;;20.70;99.90;;;;;;5067375;28;20052;-57
2023/06/28 07:37:52;;;;;;;13.65;8.70;;;20.70;99.90;;;;;;5066683;28;20048;-58
2023/06/28 07:40:19;;;;;;;21.25;9.40;;;20.70;99.90;;;;;;5067903;28;20060;-57
2023/06/28 07:42:46;;;;;;;15.75;9.35;;;20.80;99.90;;;;;;5067983;28;20049;-58
2023/06/28 07:45:13;;;;;;;16.13;8.88;;;21.00;99.90;;;;;;5050184;28;20040;-59
2023/06/28 07:47:40;;;;;;;17.10;9.38;;;21.10;99.90;;;;;;5067513;28;20048;-59
2023/06/28 07:50:08;;;;;;;14.13;8.70;;;21.10;99.90;;;;;;5067782;28;20071;-59
2023/06/28 07:52:35;;;;;;;33.28;10.77;;;21.10;99.90;;;;;;5067725;28;20415;-59
2023/06/28 07:55:04;;;;;;;20.23;9.38;;;21.10;99.90;;;;;;5066905;28;20056;-60
2023/06/28 07:57:31;;;;;;;15.90;8.63;;;21.20;99.90;;;;;;5066488;28;20483;-58
2023/06/28 07:59:57;;;;;;;17.85;9.43;;;21.20;99.90;;;;;;5066856;28;20040;-56
2023/06/28 08:02:24;;;;;;;19.00;9.80;;;21.30;99.90;;;;;;5066393;28;20419;-57
2023/06/28 08:04:52;;;;;;;16.48;9.30;;;21.10;99.90;;;;;;5067295;28;20135;-57
2023/06/28 08:07:19;;;;;;;17.95;9.25;;;21.10;99.90;;;;;;5066291;28;20130;-57
2023/06/28 08:09:45;;;;;;;15.85;8.48;;;21.20;99.90;;;;;;5066681;28;20321;-58
2023/06/28 08:12:12;;;;;;;11.30;8.00;;;21.20;99.90;;;;;;5066720;28;20060;-58
2023/06/28 08:14:39;;;;;;;13.65;8.15;;;21.20;99.90;;;;;;5066959;28;20055;-58
2023/06/28 08:17:06;;;;;;;15.73;9.30;;;21.20;99.90;;;;;;5066531;28;20051;-59
2023/06/28 08:19:33;;;;;;;12.55;8.52;;;21.20;99.90;;;;;;5067063;28;20044;-58
2023/06/28 08:22:00;;;;;;;15.15;9.45;;;21.20;99.90;;;;;;5068067;28;20053;-58
2023/06/28 08:24:27;;;;;;;18.63;8.95;;;21.20;99.90;;;;;;5062992;28;20205;-60
2023/06/28 08:26:54;;;;;;;16.40;8.63;;;21.30;99.90;;;;;;5058176;28;20049;-58
2023/06/28 08:29:24;;;;;;;14.10;8.27;;;21.20;99.90;;;;;;5062547;28;20507;-58
2023/06/28 08:31:51;;;;;;;17.90;9.30;;;21.20;99.90;;;;;;5059488;28;20495;-59
2023/06/28 08:34:18;;;;;;;16.00;8.40;;;21.20;99.90;;;;;;5064449;28;20044;-58
2023/06/28 08:36:44;;;;;;;22.02;8.23;;;21.20;99.90;;;;;;5042144;28;20465;-57
2023/06/28 08:39:11;;;;;;;14.90;9.15;;;21.20;99.90;;;;;;5062408;28;20137;-58
2023/06/28 08:41:40;;;;;;;13.02;8.85;;;21.20;99.90;;;;;;5060078;28;20071;-60
2023/06/28 08:44:11;;;;;;;11.32;8.80;;;21.10;99.90;;;;;;5059225;28;20495;-56
2023/06/28 08:46:39;;;;;;;15.98;8.82;;;21.20;99.90;;;;;;5042951;28;20045;-58
2023/06/28 08:49:06;;;;;;;16.20;8.75;;;21.20;99.90;;;;;;5040423;28;20384;-57
2023/06/28 08:51:33;;;;;;;15.93;9.15;;;21.20;99.90;;;;;;5059562;28;20044;-57
2023/06/28 08:54:00;;;;;;;13.70;8.52;;;21.40;99.90;;;;;;5045516;28;20055;-56
2023/06/28 08:56:27;;;;;;;15.27;8.05;;;21.30;99.90;;;;;;5060105;28;20052;-59
2023/06/28 08:58:54;;;;;;;10.30;7.35;;;21.20;99.90;;;;;;5065832;28;20050;-56
2023/06/28 09:01:24;;;;;;;15.23;8.27;;;21.20;99.90;;;;;;5049385;28;20044;-58
2023/06/28 09:03:51;;;;;;;14.38;7.65;;;21.30;99.90;;;;;;5062465;28;20140;-58
2023/06/28 09:06:18;;;;;;;14.98;8.45;;;21.40;99.90;;;;;;5066643;28;20076;-57
2023/06/28 09:08:45;;;;;;;14.50;8.02;;;21.40;99.90;;;;;;5049409;28;20049;-58
2023/06/28 09:11:11;;;;;;;14.10;7.32;;;21.40;99.90;;;;;;5049125;28;20503;-58
2023/06/28 09:13:38;;;;;;;24.38;10.15;;;21.30;99.90;;;;;;5064676;28;20706;-56
2023/06/28 09:16:08;;;;;;;12.77;7.45;;;21.30;99.90;;;;;;5044325;28;20047;-56
2023/06/28 09:18:35;;;;;;;21.17;7.82;;;21.40;99.90;;;;;;5049695;28;20551;-57
2023/06/28 09:21:02;;;;;;;13.25;8.25;;;21.50;99.90;;;;;;5067235;28;20040;-56
2023/06/28 09:23:30;;;;;;;17.85;7.93;;;21.60;99.90;;;;;;5067080;28;20090;-57
2023/06/28 09:25:57;;;;;;;16.08;7.65;;;21.70;99.90;;;;;;5067287;28;20044;-59
2023/06/28 09:28:32;;;;;;;12.18;7.45;;;21.70;99.90;;;;;;5068137;28;20054;-59
2023/06/28 09:30:59;;;;;;;9.63;6.65;;;21.80;99.90;;;;;;5034360;28;20064;-56
2023/06/28 09:33:26;;;;;;;12.75;7.43;;;21.90;99.90;;;;;;5068618;28;20048;-57
2023/06/28 09:36:02;;;;;;;11.13;7.72;;;21.90;99.90;;;;;;5050999;28;20507;-55
2023/06/28 09:38:29;;;;;;;17.83;8.75;;;21.80;99.90;;;;;;5070333;28;20083;-59
2023/06/28 09:40:59;;;;;;;13.40;8.23;;;21.90;99.90;;;;;;5071233;28;20048;-56
2023/06/28 09:43:33;;;;;;;12.43;8.00;;;21.80;99.90;;;;;;5070402;28;20080;-57
2023/06/28 09:46:16;;;;;;;12.68;7.72;;;22.00;99.90;;;;;;5070630;28;20396;-54
2023/06/28 09:48:44;;;;;;;12.40;7.45;;;22.20;99.90;;;;;;5070297;28;20036;-56
2023/06/28 09:51:11;;;;;;;12.52;7.15;;;22.10;99.90;;;;;;5070708;28;20131;-58
2023/06/28 09:53:58;;;;;;;10.52;6.93;;;22.10;99.90;;;;;;5052632;28;20048;-57
2023/06/28 09:56:43;;;;;;;14.38;7.93;;;22.10;99.90;;;;;;5059259;28;20492;-57
2023/06/28 09:59:10;;;;;;;15.20;7.97;;;22.00;99.90;;;;;;5031811;28;20529;-56
2023/06/28 10:01:52;;;;;;;12.75;8.40;;;22.00;99.90;;;;;;5029751;28;20133;-56
2023/06/28 10:04:19;;;;;;;13.40;7.47;;;22.10;99.90;;;;;;5036134;28;20450;-58
2023/06/28 10:06:47;;;;;;;12.27;7.70;;;22.10;99.90;;;;;;5035763;28;20063;-57
2023/06/28 10:09:17;;;;;;;14.77;7.97;;;22.20;99.90;;;;;;5070314;28;20159;-57
2023/06/28 10:11:45;;;;;;;11.68;7.60;;;22.10;99.90;;;;;;5047838;28;20048;-57
2023/06/28 10:14:11;;;;;;;17.50;8.23;;;22.20;99.90;;;;;;5049517;28;20048;-56
2023/06/28 10:16:40;;;;;;;11.15;7.95;;;22.10;99.90;;;;;;5049426;28;20060;-55
2023/06/28 10:19:09;;;;;;;15.30;7.70;;;22.20;99.90;;;;;;5048511;28;20044;-53
2023/06/28 10:21:38;;;;;;;12.98;8.20;;;22.20;99.90;;;;;;5052480;28;20049;-57
2023/06/28 10:24:06;;;;;;;15.63;7.53;;;22.20;99.90;;;;;;5051943;28;20055;-57
2023/06/28 10:26:33;;;;;;;12.45;7.43;;;22.30;99.90;;;;;;5035694;28;20048;-54
2023/06/28 10:29:00;;;;;;;14.70;7.32;;;22.40;99.90;;;;;;5052024;28;20052;-54
2023/06/28 10:31:27;;;;;;;13.70;7.47;;;22.40;99.90;;;;;;5051505;28;20056;-55
2023/06/28 10:33:54;;;;;;;15.73;7.88;;;22.40;99.90;;;;;;5069648;28;20101;-55
2023/06/28 10:36:21;;;;;;;13.32;7.85;;;22.40;99.90;;;;;;5069911;28;20088;-55
2023/06/28 10:38:48;;;;;;;12.55;7.18;;;22.50;99.90;;;;;;5069691;28;20044;-56
2023/06/28 10:41:15;;;;;;;11.73;7.72;;;22.50;99.90;;;;;;5035022;28;20045;-57
2023/06/28 10:43:42;;;;;;;13.45;7.72;;;22.50;99.90;;;;;;5051621;28;20049;-59
2023/06/28 10:46:26;;;;;;;10.43;7.05;;;22.60;99.90;;;;;;5051816;28;20060;-51
2023/06/28 10:48:53;;;;;;;10.38;6.53;;;22.50;99.90;;;;;;5069548;28;20132;-50
2023/06/28 10:51:22;;;;;;;11.85;6.60;;;22.50;99.90;;;;;;5069956;28;20129;-55
2023/06/28 10:53:59;;;;;;;9.40;6.85;;;22.40;99.90;;;;;;5066724;28;20068;-55
2023/06/28 10:56:45;;;;;;;11.93;7.03;;;22.40;99.90;;;;;;5067540;28;20499;-55
2023/06/28 10:59:11;;;;;;;12.45;7.03;;;22.40;99.90;;;;;;5051625;28;20510;-55
2023/06/28 11:01:48;;;;;;;14.13;7.22;;;22.40;99.90;;;;;;5069199;28;20044;-57
2023/06/28 11:04:15;;;;;;;12.57;6.70;;;22.20;99.90;;;;;;5069199;28;20040;-60
2023/06/28 11:06:41;;;;;;;12.43;6.32;;;22.20;99.90;;;;;;5069044;28;20364;-56
2023/06/28 11:09:15;;;;;;;17.85;7.82;;;21.90;99.90;;;;;;5069382;28;20040;-53
2023/06/28 11:11:51;;;;;;;13.07;7.22;;;21.70;99.90;;;;;;5068998;28;20040;-57
2023/06/28 11:14:18;;;;;;;13.88;7.13;;;21.70;99.90;;;;;;5058044;28;20048;-56
2023/06/28 11:16:46;;;;;;;10.15;6.65;;;21.70;99.90;;;;;;5068456;28;20067;-56
2023/06/28 11:19:14;;;;;;;12.60;6.57;;;21.80;99.90;;;;;;5069479;28;20045;-56
2023/06/28 11:21:41;;;;;;;11.82;6.90;;;21.80;99.90;;;;;;5068747;28;20060;-57
2023/06/28 11:24:08;;;;;;;12.82;6.30;;;21.70;99.90;;;;;;5068823;28;20063;-62
2023/06/28 11:26:37;;;;;;;9.73;6.20;;;21.60;99.90;;;;;;5050811;28;20492;-59
2023/06/28 11:29:33;;;;;;;16.83;7.18;;;21.60;99.90;;;;;;5069054;28;20135;-56
2023/06/28 11:32:01;;;;;;;13.98;7.20;;;21.60;99.90;;;;;;5033768;28;20079;-55
2023/06/28 11:34:30;;;;;;;12.45;7.03;;;21.60;99.90;;;;;;5068985;28;20419;-56
2023/06/28 11:36:56;;;;;;;12.25;7.15;;;21.60;99.90;;;;;;5068503;28;20068;-53
2023/06/28 11:39:23;;;;;;;16.13;6.85;;;21.60;99.90;;;;;;5050906;28;20098;-56
2023/06/28 11:41:50;;;;;;;16.85;8.30;;;21.60;99.90;;;;;;5068433;28;20048;-59
2023/06/28 11:44:17;;;;;;;9.48;7.05;;;21.60;99.90;;;;;;5069229;28;20423;-56
2023/06/28 11:46:46;;;;;;;14.18;6.93;;;21.90;99.90;;;;;;5068048;28;20056;-53
2023/06/28 11:49:14;;;;;;;13.15;7.53;;;22.20;99.90;;;;;;5051213;28;20044;-56
2023/06/28 11:51:41;;;;;;;10.63;7.20;;;22.20;99.90;;;;;;5067503;28;20044;-56
2023/06/28 11:54:08;;;;;;;11.85;7.60;;;22.40;99.90;;;;;;5068334;28;20076;-57
2023/06/28 11:56:39;;;;;;;12.52;7.07;;;22.60;99.90;;;;;;5068021;28;20040;-56
2023/06/28 11:59:18;;;;;;;11.77;7.03;;;23.00;99.90;;;;;;5051435;28;20131;-56
2023/06/28 12:01:45;;;;;;;16.33;6.90;;;23.20;99.90;;;;;;5050429;28;20047;-58
2023/06/28 12:04:19;;;;;;;9.30;6.65;;;23.40;99.90;;;;;;5068479;28;20064;-57
2023/06/28 12:06:50;;;;;;;10.82;7.47;;;23.60;99.90;;;;;;5067841;28;20407;-56
2023/06/28 12:09:21;;;;;;;11.18;6.90;;;23.70;99.90;;;;;;5050655;28;20078;-58
2023/06/28 12:11:56;;;;;;;14.48;7.68;;;23.80;99.90;;;;;;5068018;28;20048;-58
2023/06/28 12:14:29;;;;;;;10.40;6.72;;;23.70;99.90;;;;;;5057990;28;20078;-57
2023/06/28 12:16:57;;;;;;;13.23;6.75;;;23.80;99.90;;;;;;5067980;28;20450;-58
2023/06/28 12:19:27;;;;;;;16.15;6.65;;;23.70;99.90;;;;;;5068384;28;20049;-58
2023/06/28 12:21:54;;;;;;;16.13;7.22;;;23.50;99.90;;;;;;5067639;28;20049;-56
2023/06/28 12:24:24;;;;;;;14.18;8.35;;;23.30;99.90;;;;;;5065163;28;20052;-55
2023/06/28 12:26:53;;;;;;;11.43;7.13;;;23.20;99.90;;;;;;5048919;28;20128;-50
2023/06/28 12:29:21;;;;;;;13.43;7.13;;;23.10;99.90;;;;;;5059537;28;20483;-57
2023/06/28 12:31:51;;;;;;;10.50;7.15;;;23.10;99.90;;;;;;5048500;28;20144;-57
2023/06/28 12:34:28;;;;;;;17.70;7.20;;;23.00;99.90;;;;;;5064937;28;20068;-57
2023/06/28 12:36:55;;;;;;;12.43;8.27;;;23.00;99.90;;;;;;5037482;28;20041;-55
2023/06/28 12:39:32;;;;;;;11.63;7.93;;;22.90;99.90;;;;;;5066864;28;20044;-58